Time;durP1;ratioP1;P1;durP2;ratioP2;P2;SDS_P1;SDS_P2;PMS_P1;PMS_P2;Temp;Humidity;BMP_temperature;BMP_pressure;BME280_temperature;BME280_humidity;BME280_pressure;Samples;Min_cycle;Max_cycle;Signal;HPM_P1;HPM_P2
2021/04/07 00:02:04;;;;;;;19.98;8.78;;;;;;;0.64;53.87;98915.19;147724;1147;104547;-72
2021/04/07 00:05:11;;;;;;;18.17;10.18;;;;;;;0.65;54.24;98924.72;147791;1147;104476;-72
2021/04/07 00:08:20;;;;;;;18.00;8.73;;;;;;;0.67;54.28;98921.98;147718;1147;104566;-72
2021/04/07 00:11:24;;;;;;;20.60;9.85;;;;;;;0.65;54.44;98919.47;147703;1147;104574;-75
2021/04/07 00:14:27;;;;;;;20.00;9.53;;;;;;;0.65;54.45;98918.64;147283;1147;104541;-75
2021/04/07 00:17:30;;;;;;;18.92;8.70;;;;;;;0.65;54.54;98921.27;147690;1147;104506;-75
2021/04/07 00:20:34;;;;;;;22.42;10.18;;;;;;;0.67;54.71;98919.35;147199;1147;104560;-78
2021/04/07 00:23:37;;;;;;;18.67;9.18;;;;;;;0.69;54.74;98915.64;147645;1147;104507;-77
2021/04/07 00:26:41;;;;;;;21.93;10.13;;;;;;;0.70;55.20;98919.95;147438;1147;104620;-76
2021/04/07 00:29:44;;;;;;;19.37;10.00;;;;;;;0.70;54.78;98914.69;147580;1148;104509;-72
2021/04/07 00:32:47;;;;;;;19.52;10.00;;;;;;;0.70;54.81;98912.06;147549;1147;105158;-74
2021/04/07 00:35:50;;;;;;;18.37;10.13;;;;;;;0.68;54.86;98907.91;147806;1147;104550;-72
2021/04/07 00:38:54;;;;;;;19.83;8.77;;;;;;;0.65;55.27;98918.64;147738;1147;104457;-75
2021/04/07 00:42:04;;;;;;;23.22;11.03;;;;;;;0.62;55.39;98903.13;147778;1147;104793;-76
2021/04/07 00:45:10;;;;;;;16.53;8.93;;;;;;;0.59;54.80;98906.84;147837;1147;104534;-75
2021/04/07 00:48:14;;;;;;;18.48;9.68;;;;;;;0.55;54.94;98905.42;147806;1146;104892;-76
2021/04/07 00:51:17;;;;;;;22.58;9.48;;;;;;;0.53;54.93;98909.97;147800;1147;104473;-76
2021/04/07 00:54:21;;;;;;;18.40;8.48;;;;;;;0.41;55.11;98911.77;147768;1147;104597;-75
2021/04/07 00:57:25;;;;;;;20.57;8.75;;;;;;;0.35;55.56;98913.09;147548;1147;104563;-73
2021/04/07 01:00:29;;;;;;;18.43;9.07;;;;;;;0.33;55.58;98919.42;147702;1147;104497;-71
2021/04/07 01:03:32;;;;;;;20.32;9.90;;;;;;;0.29;55.31;98920.59;147737;1147;104546;-73
2021/04/07 01:06:36;;;;;;;20.27;8.58;;;;;;;0.23;55.44;98923.70;147754;1147;104549;-74
2021/04/07 01:09:40;;;;;;;18.73;8.70;;;;;;;0.17;55.88;98923.25;147770;1146;104513;-72
2021/04/07 01:12:44;;;;;;;19.20;9.40;;;;;;;0.17;55.14;98919.77;147732;1147;104607;-72
2021/04/07 01:15:47;;;;;;;19.30;9.43;;;;;;;0.12;55.65;98921.94;147762;1147;104569;-77
2021/04/07 01:18:51;;;;;;;19.97;9.70;;;;;;;0.09;55.43;98922.17;147719;1147;104560;-72
2021/04/07 01:21:54;;;;;;;16.85;8.45;;;;;;;0.05;55.70;98920.73;147689;1147;104899;-71
2021/04/07 01:24:58;;;;;;;19.82;9.75;;;;;;;0.02;55.35;98929.69;147721;1148;104503;-72
2021/04/07 01:28:01;;;;;;;17.05;9.18;;;;;;;0.02;55.46;98931.45;147328;1147;104699;-72
2021/04/07 01:31:05;;;;;;;21.57;10.40;;;;;;;0.03;55.54;98933.14;147662;1147;104547;-71
2021/04/07 01:34:08;;;;;;;21.30;10.17;;;;;;;0.02;56.48;98931.45;147460;1147;104559;-74
2021/04/07 01:37:13;;;;;;;20.65;9.58;;;;;;;0.03;55.81;98928.72;147419;1146;104563;-73
2021/04/07 01:40:18;;;;;;;18.70;8.57;;;;;;;0.06;56.02;98933.74;147363;1147;104831;-73
2021/04/07 01:43:22;;;;;;;20.23;9.95;;;;;;;0.07;56.00;98939.81;147468;1147;104627;-72
2021/04/07 01:46:26;;;;;;;17.92;9.78;;;;;;;0.04;56.16;98935.65;147536;1147;105007;-73
2021/04/07 01:49:29;;;;;;;21.35;9.78;;;;;;;-0.01;56.49;98937.78;147548;1147;104988;-74
2021/04/07 01:52:33;;;;;;;16.82;8.98;;;;;;;-0.05;56.47;98941.59;147616;1147;104493;-71
2021/04/07 01:55:36;;;;;;;16.90;8.53;;;;;;;-0.10;55.90;98935.86;147675;1146;104547;-77
2021/04/07 01:58:40;;;;;;;22.95;10.38;;;;;;;-0.11;56.18;98952.56;147766;1147;104602;-72
2021/04/07 02:01:43;;;;;;;20.60;10.07;;;;;;;-0.13;56.04;98949.22;147690;1147;104526;-73
2021/04/07 02:04:47;;;;;;;23.20;10.83;;;;;;;-0.15;56.04;98957.20;147738;1147;104565;-72
2021/04/07 02:07:50;;;;;;;19.20;9.53;;;;;;;-0.17;56.05;98953.86;147722;1147;104470;-76
2021/04/07 02:10:53;;;;;;;18.00;9.50;;;;;;;-0.24;56.38;98945.61;147566;1147;104892;-71
2021/04/07 02:13:56;;;;;;;23.80;10.63;;;;;;;-0.23;56.20;98946.47;147784;1146;104612;-71
2021/04/07 02:17:01;;;;;;;21.25;10.40;;;;;;;-0.27;56.38;98953.73;147761;1146;104893;-72
2021/04/07 02:20:07;;;;;;;25.23;12.58;;;;;;;-0.26;56.29;98951.94;147767;1147;104546;-73
2021/04/07 02:23:10;;;;;;;20.72;10.23;;;;;;;-0.25;56.71;98951.83;147668;1146;104499;-76
2021/04/07 02:26:14;;;;;;;23.25;11.22;;;;;;;-0.25;56.98;98953.59;147527;1147;104545;-73
2021/04/07 02:29:17;;;;;;;26.95;12.47;;;;;;;-0.26;56.45;98959.80;147733;1146;104639;-74
2021/04/07 02:32:22;;;;;;;20.45;10.72;;;;;;;-0.25;56.86;98950.97;147553;1148;104853;-77
2021/04/07 02:35:26;;;;;;;21.57;11.18;;;;;;;-0.26;57.26;98958.00;147696;1146;104556;-73
2021/04/07 02:38:29;;;;;;;21.70;10.27;;;;;;;-0.28;56.82;98959.08;147733;1147;104490;-72
2021/04/07 02:41:32;;;;;;;25.65;12.15;;;;;;;-0.29;57.20;98960.02;147621;1147;104477;-74
2021/04/07 02:44:35;;;;;;;24.73;12.37;;;;;;;-0.31;56.82;98960.16;147720;1147;104545;-73
2021/04/07 02:47:38;;;;;;;20.67;11.07;;;;;;;-0.33;57.84;98954.17;147599;1147;104489;-71
2021/04/07 02:50:41;;;;;;;20.77;9.48;;;;;;;-0.36;57.65;98953.59;147574;1147;104508;-72
2021/04/07 02:53:44;;;;;;;18.10;9.18;;;;;;;-0.35;58.22;98957.87;147581;1146;104585;-70
2021/04/07 02:56:48;;;;;;;26.00;12.50;;;;;;;-0.34;57.77;98967.41;147653;1147;104480;-73
2021/04/07 02:59:51;;;;;;;27.22;12.85;;;;;;;-0.32;57.22;98963.72;147681;1147;104561;-71
2021/04/07 03:02:55;;;;;;;26.90;14.15;;;;;;;-0.31;57.26;98962.78;147724;1148;104509;-73
2021/04/07 03:06:01;;;;;;;21.10;10.32;;;;;;;-0.28;57.37;98972.19;147254;1147;104560;-72
2021/04/07 03:09:05;;;;;;;18.42;9.50;;;;;;;-0.25;57.92;98988.52;147451;1147;105402;-72
2021/04/07 03:12:09;;;;;;;20.27;10.23;;;;;;;-0.23;58.38;98977.93;147601;1147;104493;-71
2021/04/07 03:15:13;;;;;;;18.98;9.13;;;;;;;-0.20;58.12;98981.13;147711;1147;104544;-70
2021/04/07 03:18:16;;;;;;;40.70;22.47;;;;;;;-0.20;57.99;98980.30;147304;1147;104580;-70
2021/04/07 03:21:19;;;;;;;17.87;9.53;;;;;;;-0.19;58.68;98992.47;147397;1148;104534;-71
2021/04/07 03:24:22;;;;;;;14.73;7.40;;;;;;;-0.15;57.79;98993.91;147595;1147;104539;-69
2021/04/07 03:27:26;;;;;;;12.75;7.47;;;;;;;-0.15;57.71;98993.91;147687;1147;104547;-70
2021/04/07 03:30:48;;;;;;;17.70;8.73;;;;;;;-0.16;57.82;98994.02;147557;1148;104618;-69
2021/04/07 03:33:50;;;;;;;;;;;;;;;-0.19;58.80;99000.34;147642;1147;105033;-72
2021/04/07 03:36:53;;;;;;;16.42;8.20;;;;;;;-0.18;58.33;99007.23;147568;1146;104559;-74
2021/04/07 03:39:56;;;;;;;13.90;7.72;;;;;;;-0.16;58.33;99012.37;147670;1147;104604;-71
2021/04/07 03:42:59;;;;;;;16.67;8.95;;;;;;;-0.15;58.46;99007.02;147660;1147;104552;-72
2021/04/07 03:46:03;;;;;;;25.30;12.00;;;;;;;-0.21;58.04;99010.93;147603;1147;104569;-72
2021/04/07 03:49:06;;;;;;;19.63;8.70;;;;;;;-0.22;58.43;99008.42;147778;1147;104545;-72
2021/04/07 03:52:09;;;;;;;24.13;12.43;;;;;;;-0.21;58.91;99007.48;147733;1146;104489;-70
2021/04/07 03:55:13;;;;;;;21.83;10.07;;;;;;;-0.13;58.21;99018.22;147440;1147;104561;-73
2021/04/07 03:58:16;;;;;;;28.63;14.43;;;;;;;-0.01;58.61;99017.28;147708;1147;104498;-70
2021/04/07 04:01:19;;;;;;;32.50;15.90;;;;;;;0.06;58.54;99022.91;147592;1148;104636;-70
2021/04/07 04:04:22;;;;;;;25.37;11.93;;;;;;;0.12;58.80;99021.61;147632;1147;104528;-74
2021/04/07 04:07:25;;;;;;;37.65;15.40;;;;;;;0.21;59.28;99031.38;147610;1147;104456;-75
2021/04/07 04:10:29;;;;;;;30.77;14.67;;;;;;;0.30;58.62;99028.05;147677;1147;104473;-73
2021/04/07 04:13:32;;;;;;;33.92;17.92;;;;;;;0.43;59.12;99035.00;147666;1148;104448;-73
2021/04/07 04:16:35;;;;;;;35.68;15.78;;;;;;;0.55;59.03;99029.61;147582;1147;104592;-70
2021/04/07 04:19:39;;;;;;;89.47;40.00;;;;;;;0.62;59.36;99035.23;147513;1147;104503;-72
2021/04/07 04:22:42;;;;;;;40.92;16.50;;;;;;;0.69;59.55;99043.45;147109;1147;104561;-69
2021/04/07 04:25:45;;;;;;;71.17;37.85;;;;;;;0.72;59.49;99041.42;147189;1148;104554;-69
2021/04/07 04:28:49;;;;;;;31.48;17.37;;;;;;;0.77;60.25;99036.66;147175;1148;104592;-71
2021/04/07 04:31:52;;;;;;;100.53;53.95;;;;;;;0.80;59.78;99037.37;147496;1147;104516;-69
2021/04/07 04:34:55;;;;;;;37.38;22.48;;;;;;;0.89;60.02;99039.27;147603;1147;104494;-70
2021/04/07 04:37:58;;;;;;;24.85;13.05;;;;;;;0.96;60.60;99040.44;147574;1147;104550;-73
2021/04/07 04:41:01;;;;;;;36.45;21.10;;;;;;;1.03;60.35;99033.75;147589;1147;104519;-72
2021/04/07 04:44:05;;;;;;;33.50;17.50;;;;;;;1.07;60.64;99039.59;147680;1147;104451;-71
2021/04/07 04:47:08;;;;;;;92.90;38.47;;;;;;;1.07;60.42;99040.42;147616;1147;104548;-74
2021/04/07 04:50:13;;;;;;;83.40;39.60;;;;;;;1.11;60.44;99052.34;147619;1147;104542;-72
2021/04/07 04:53:16;;;;;;;42.75;26.25;;;;;;;1.17;60.82;99045.77;147663;1147;105041;-70
2021/04/07 04:56:19;;;;;;;31.90;17.83;;;;;;;1.24;60.48;99043.50;147730;1146;104478;-70
2021/04/07 04:59:22;;;;;;;97.88;54.27;;;;;;;1.34;60.27;99049.67;147698;1147;104546;-70
2021/04/07 05:02:26;;;;;;;45.05;26.95;;;;;;;1.37;61.14;99049.44;147534;1146;104892;-71
2021/04/07 05:05:29;;;;;;;231.97;111.20;;;;;;;1.36;60.55;99058.27;147490;1147;104543;-74
2021/04/07 05:08:32;;;;;;;35.63;20.20;;;;;;;1.41;61.47;99057.91;147515;1148;104585;-72
2021/04/07 05:11:36;;;;;;;49.38;29.67;;;;;;;1.44;60.83;99063.73;147740;1147;104598;-70
2021/04/07 05:14:39;;;;;;;27.07;16.48;;;;;;;1.45;60.22;99062.78;147521;1147;104529;-70
2021/04/07 05:17:42;;;;;;;304.00;127.70;;;;;;;1.54;60.41;99062.05;147783;1147;104635;-70
2021/04/07 05:20:46;;;;;;;75.72;40.10;;;;;;;1.59;61.17;99072.17;147757;1147;104503;-70
2021/04/07 05:23:49;;;;;;;46.28;28.27;;;;;;;1.56;60.84;99081.16;147616;1146;104470;-70
2021/04/07 05:26:52;;;;;;;48.80;27.93;;;;;;;1.55;61.09;99079.47;147689;1147;104545;-73
2021/04/07 05:29:55;;;;;;;130.87;43.52;;;;;;;1.47;60.97;99081.89;147707;1147;104556;-70
2021/04/07 05:32:58;;;;;;;64.58;30.40;;;;;;;1.34;60.70;99089.09;147612;1147;104576;-72
2021/04/07 05:36:03;;;;;;;165.40;89.22;;;;;;;1.31;61.62;99094.59;147720;1147;104513;-73
2021/04/07 05:39:07;;;;;;;359.05;168.90;;;;;;;1.34;61.15;99096.98;147695;1147;104454;-70
2021/04/07 05:42:11;;;;;;;366.60;128.35;;;;;;;1.36;60.95;99097.69;147527;1147;104461;-72
2021/04/07 05:45:15;;;;;;;344.30;133.90;;;;;;;1.36;60.68;99095.89;147392;1146;104547;-70
2021/04/07 05:48:19;;;;;;;199.82;68.40;;;;;;;1.42;61.23;99102.45;147560;1147;104646;-70
2021/04/07 05:51:22;;;;;;;144.70;63.35;;;;;;;1.37;61.88;99102.00;147606;1147;105762;-72
2021/04/07 05:54:25;;;;;;;381.90;177.07;;;;;;;1.42;61.42;99099.82;147581;1147;104580;-71
2021/04/07 05:57:28;;;;;;;142.55;63.42;;;;;;;1.41;60.91;99106.05;147628;1147;104456;-71
2021/04/07 06:00:32;;;;;;;159.05;80.05;;;;;;;1.48;61.17;99112.49;147623;1147;104546;-69
2021/04/07 06:03:35;;;;;;;96.30;37.93;;;;;;;1.52;61.36;99116.55;147645;1147;104654;-67
2021/04/07 06:06:38;;;;;;;268.05;124.22;;;;;;;1.54;60.88;99111.99;147659;1147;104859;-68
2021/04/07 06:09:42;;;;;;;85.17;45.00;;;;;;;1.60;62.18;99122.95;147602;1147;104547;-71
2021/04/07 06:12:45;;;;;;;395.55;169.50;;;;;;;1.56;61.17;99120.59;147582;1147;104535;-70
2021/04/07 06:15:48;;;;;;;87.85;46.18;;;;;;;1.70;61.51;99131.80;147475;1146;104476;-71
2021/04/07 06:18:52;;;;;;;43.78;27.85;;;;;;;1.73;61.17;99134.16;147301;1147;104630;-70
2021/04/07 06:21:55;;;;;;;394.13;155.67;;;;;;;1.76;62.33;99128.66;147311;1147;104562;-72
2021/04/07 06:24:59;;;;;;;315.68;122.15;;;;;;;1.81;61.43;99144.05;147303;1147;104561;-70
2021/04/07 06:28:04;;;;;;;211.72;93.80;;;;;;;1.84;60.17;99147.27;147554;1148;104563;-72
2021/04/07 06:31:07;;;;;;;61.10;30.17;;;;;;;1.91;61.19;99140.56;147673;1146;104496;-69
2021/04/07 06:34:10;;;;;;;282.83;135.72;;;;;;;1.95;60.91;99144.61;147609;1147;104671;-74
2021/04/07 06:37:13;;;;;;;162.70;75.08;;;;;;;2.04;60.66;99150.92;147578;1147;104533;-73
2021/04/07 06:40:18;;;;;;;86.20;47.33;;;;;;;2.11;60.67;99151.24;147419;1146;104659;-70
2021/04/07 06:43:24;;;;;;;105.67;62.30;;;;;;;2.13;61.22;99149.31;147593;1147;104458;-69
2021/04/07 06:46:28;;;;;;;237.05;136.32;;;;;;;2.22;59.59;99147.73;147172;1147;104545;-70
2021/04/07 06:49:33;;;;;;;168.90;87.90;;;;;;;2.33;60.59;99152.95;147158;1146;104460;-69
2021/04/07 06:52:37;;;;;;;239.50;121.02;;;;;;;2.42;60.93;99148.70;147197;1147;104546;-72
2021/04/07 06:55:40;;;;;;;51.55;26.23;;;;;;;2.51;59.91;99147.93;147265;1147;104547;-71
2021/04/07 06:58:44;;;;;;;59.55;39.65;;;;;;;2.51;60.58;99148.76;147610;1147;104580;-69
2021/04/07 07:01:47;;;;;;;54.93;39.42;;;;;;;2.55;60.10;99150.16;147177;1147;104473;-70
2021/04/07 07:04:50;;;;;;;39.98;29.45;;;;;;;2.63;59.53;99143.43;147567;1147;104545;-71
2021/04/07 07:07:59;;;;;;;155.77;94.33;;;;;;;2.72;59.94;99151.38;147683;1146;104627;-70
2021/04/07 07:11:12;;;;;;;513.05;213.55;;;;;;;2.84;59.97;99148.67;147715;1147;104876;-69
2021/04/07 07:14:16;;;;;;;116.37;74.00;;;;;;;3.04;59.19;99146.95;147599;1146;104435;-72
2021/04/07 07:17:31;;;;;;;69.55;42.38;;;;;;;3.15;58.89;99152.95;147730;1147;104465;-70
2021/04/07 07:20:36;;;;;;;24.53;14.07;;;;;;;3.21;59.13;99151.59;147698;1147;104612;-69
2021/04/07 07:23:39;;;;;;;17.53;11.00;;;;;;;3.11;60.04;99154.20;147607;1147;104554;-70
2021/04/07 07:26:42;;;;;;;39.67;28.80;;;;;;;3.22;59.39;99155.09;147631;1148;104538;-72
2021/04/07 07:29:57;;;;;;;28.15;18.37;;;;;;;3.33;60.05;99150.55;147673;1146;104531;-72
2021/04/07 07:33:00;;;;;;;30.70;18.37;;;;;;;3.38;59.43;99159.85;147348;1147;104553;-73
2021/04/07 07:36:09;;;;;;;68.75;42.15;;;;;;;3.30;58.70;99160.52;147224;1147;104615;-69
2021/04/07 07:39:12;;;;;;;21.42;12.98;;;;;;;3.17;59.58;99168.65;147608;1147;104556;-72
2021/04/07 07:42:15;;;;;;;55.80;32.88;;;;;;;2.97;58.84;99170.37;147738;1147;104496;-68
2021/04/07 07:45:28;;;;;;;67.95;43.35;;;;;;;2.89;59.94;99173.66;147610;1147;104659;-73
2021/04/07 07:48:32;;;;;;;39.00;23.87;;;;;;;2.93;59.77;99182.15;147641;1147;104461;-69
2021/04/07 07:51:43;;;;;;;29.77;18.82;;;;;;;2.84;59.65;99183.75;147660;1147;104611;-69
2021/04/07 07:54:46;;;;;;;18.50;11.68;;;;;;;2.75;59.72;99181.89;147744;1147;104527;-71
2021/04/07 07:57:57;;;;;;;36.70;26.62;;;;;;;2.74;59.51;99181.06;147675;1146;104465;-70
2021/04/07 08:01:07;;;;;;;29.15;22.00;;;;;;;2.86;60.04;99173.91;147657;1148;104473;-70
2021/04/07 08:04:11;;;;;;;17.87;13.00;;;;;;;3.01;60.36;99181.49;147715;1147;104547;-72
2021/04/07 08:07:15;;;;;;;33.08;20.80;;;;;;;3.20;58.94;99183.39;147630;1148;104585;-70
2021/04/07 08:10:18;;;;;;;21.60;15.63;;;;;;;3.40;59.98;99173.73;147629;1147;104534;-70
2021/04/07 08:13:22;;;;;;;17.25;11.83;;;;;;;3.62;59.74;99185.86;147431;1147;104482;-69
2021/04/07 08:16:27;;;;;;;20.27;14.58;;;;;;;3.54;59.62;99183.90;147293;1147;104433;-71
2021/04/07 08:19:32;;;;;;;19.00;13.07;;;;;;;3.41;59.70;99191.24;147602;1147;104550;-71
2021/04/07 08:22:36;;;;;;;19.02;10.82;;;;;;;3.30;59.24;99203.53;147489;1146;104598;-71
2021/04/07 08:25:41;;;;;;;19.05;12.45;;;;;;;3.26;59.42;99198.67;147511;1148;104561;-70
2021/04/07 08:28:45;;;;;;;19.57;13.50;;;;;;;3.25;59.57;99203.12;147691;1148;104945;-69
2021/04/07 08:31:50;;;;;;;23.37;15.60;;;;;;;3.36;59.84;99210.08;147705;1148;104509;-71
2021/04/07 08:34:54;;;;;;;20.68;13.88;;;;;;;3.44;58.84;99204.97;147678;1147;104457;-74
2021/04/07 08:38:04;;;;;;;17.37;10.68;;;;;;;3.64;59.80;99199.78;147763;1146;104550;-70
2021/04/07 08:41:12;;;;;;;15.43;10.60;;;;;;;3.76;59.08;99196.05;147772;1146;104488;-69
2021/04/07 08:44:17;;;;;;;14.53;10.03;;;;;;;4.11;58.37;99202.63;147632;1147;104459;-71
2021/04/07 08:47:25;;;;;;;13.75;10.10;;;;;;;4.49;58.79;99196.52;147543;1147;104457;-70
2021/04/07 08:50:30;;;;;;;13.13;10.20;;;;;;;4.89;58.70;99199.95;147449;1147;104553;-70
2021/04/07 08:53:38;;;;;;;12.07;9.10;;;;;;;5.00;57.77;99191.83;147634;1147;104545;-70
2021/04/07 08:56:42;;;;;;;12.20;9.20;;;;;;;5.13;57.33;99199.45;147646;1146;104514;-72
2021/04/07 08:59:51;;;;;;;11.80;8.40;;;;;;;5.25;57.33;99208.03;147476;1147;104545;-71
2021/04/07 09:02:57;;;;;;;11.50;7.72;;;;;;;5.22;57.06;99210.98;147705;1147;104884;-70
2021/04/07 09:06:01;;;;;;;10.95;7.67;;;;;;;5.19;56.26;99203.33;147659;1147;104523;-72
2021/04/07 09:09:07;;;;;;;11.05;8.43;;;;;;;5.26;56.95;99202.61;147626;1147;104535;-70
2021/04/07 09:12:13;;;;;;;10.20;7.47;;;;;;;5.46;57.45;99210.46;147612;1147;104463;-72
2021/04/07 09:15:19;;;;;;;9.95;7.78;;;;;;;5.66;57.41;99201.45;147646;1147;104535;-70
2021/04/07 09:18:37;;;;;;;9.85;6.95;;;;;;;5.70;56.33;99199.36;147697;1146;104625;-72
2021/04/07 09:21:41;;;;;;;10.72;7.87;;;;;;;5.80;55.85;99201.95;147602;1147;104479;-71
2021/04/07 09:24:45;;;;;;;42.80;23.77;;;;;;;5.81;56.12;99203.59;147630;1148;104524;-71
2021/04/07 09:27:48;;;;;;;10.65;7.70;;;;;;;5.72;55.53;99205.33;147839;1147;104596;-70
2021/04/07 09:30:51;;;;;;;10.25;7.55;;;;;;;5.77;55.74;99192.47;147368;1147;104537;-70
2021/04/07 09:33:56;;;;;;;30.62;20.60;;;;;;;5.82;56.09;99202.63;147657;1147;104459;-71
2021/04/07 09:36:59;;;;;;;17.97;9.73;;;;;;;5.85;55.57;99199.66;147780;1147;104553;-73
2021/04/07 09:40:03;;;;;;;10.83;7.53;;;;;;;5.98;54.88;99191.41;147607;1148;104514;-70
2021/04/07 09:43:07;;;;;;;11.47;7.83;;;;;;;6.00;55.12;99184.14;147777;1147;104546;-70
2021/04/07 09:46:11;;;;;;;10.18;7.45;;;;;;;5.87;53.53;99193.26;147726;1147;104483;-70
2021/04/07 09:49:14;;;;;;;59.93;32.97;;;;;;;5.92;54.80;99189.33;147603;1147;104522;-69
2021/04/07 09:52:17;;;;;;;16.52;8.35;;;;;;;6.08;53.13;99195.66;147750;1146;104806;-70
2021/04/07 09:55:23;;;;;;;9.95;7.50;;;;;;;6.37;55.99;99189.31;147583;1147;104457;-70
2021/04/07 09:58:27;;;;;;;11.60;6.30;;;;;;;6.84;53.77;99182.88;147578;1147;104470;-70
2021/04/07 10:01:39;;;;;;;8.23;5.83;;;;;;;7.04;53.55;99186.98;147557;1147;104553;-70
2021/04/07 10:04:43;;;;;;;19.25;11.55;;;;;;;7.03;53.21;99185.31;147588;1147;104539;-69
2021/04/07 10:07:46;;;;;;;20.45;9.25;;;;;;;6.85;52.59;99195.13;147317;1147;104545;-70
2021/04/07 10:10:49;;;;;;;13.60;7.30;;;;;;;6.65;53.52;99199.80;147472;1147;104553;-71
2021/04/07 10:13:54;;;;;;;9.48;6.42;;;;;;;6.56;53.44;99201.53;147662;1148;104466;-70
2021/04/07 10:16:57;;;;;;;11.55;7.03;;;;;;;5.90;55.03;99214.13;147648;1147;104546;-71
2021/04/07 10:20:09;;;;;;;18.75;12.45;;;;;;;5.35;56.14;99229.16;147552;1147;104473;-72
2021/04/07 10:23:16;;;;;;;11.65;7.58;;;;;;;4.99;57.03;99235.12;147725;1147;104479;-70
2021/04/07 10:26:20;;;;;;;13.28;8.05;;;;;;;4.60;58.92;99251.03;147667;1147;104509;-70
2021/04/07 10:29:25;;;;;;;13.00;8.53;;;;;;;4.21;58.27;99248.34;147482;1147;104484;-72
2021/04/07 10:32:29;;;;;;;14.73;9.33;;;;;;;4.10;58.77;99248.50;147551;1148;104473;-69
2021/04/07 10:35:35;;;;;;;18.92;13.05;;;;;;;4.21;58.19;99250.98;147616;1147;104450;-70
2021/04/07 10:38:38;;;;;;;24.70;16.17;;;;;;;4.17;58.47;99249.59;147620;1147;104655;-74
2021/04/07 10:41:47;;;;;;;24.35;13.72;;;;;;;4.36;58.44;99245.31;147701;1147;104630;-70
2021/04/07 10:45:02;;;;;;;16.17;10.88;;;;;;;4.61;58.85;99249.21;147735;1147;104601;-69
2021/04/07 10:48:08;;;;;;;19.42;13.90;;;;;;;4.83;58.98;99253.35;147287;1147;104447;-69
2021/04/07 10:51:21;;;;;;;20.17;12.30;;;;;;;4.85;58.38;99246.12;147622;1147;104553;-70
2021/04/07 10:54:26;;;;;;;29.98;15.13;;;;;;;5.18;58.51;99252.75;147596;1147;104477;-73
2021/04/07 10:57:37;;;;;;;88.47;30.45;;;;;;;5.41;58.49;99247.95;147565;1147;104628;-69
2021/04/07 11:00:41;;;;;;;38.65;15.23;;;;;;;5.59;57.65;99244.53;147495;1147;104809;-70
2021/04/07 11:03:44;;;;;;;31.83;12.67;;;;;;;5.50;57.51;99247.09;147594;1147;104477;-72
2021/04/07 11:06:55;;;;;;;26.40;13.62;;;;;;;5.47;57.88;99247.36;147538;1148;104560;-71
2021/04/07 11:09:58;;;;;;;32.40;18.50;;;;;;;5.47;57.23;99247.36;147768;1147;104548;-70
2021/04/07 11:13:03;;;;;;;27.53;15.23;;;;;;;5.50;57.34;99244.44;147169;1147;104556;-71
2021/04/07 11:16:10;;;;;;;15.67;9.23;;;;;;;5.50;56.23;99233.86;147266;1146;104569;-71
2021/04/07 11:19:17;;;;;;;16.42;10.43;;;;;;;5.40;57.14;99240.98;147613;1147;104550;-73
2021/04/07 11:22:21;;;;;;;17.50;11.68;;;;;;;5.54;57.52;99233.55;147617;1147;104895;-70
2021/04/07 11:25:24;;;;;;;17.43;10.03;;;;;;;5.57;56.90;99234.09;147273;1146;104544;-69
2021/04/07 11:28:27;;;;;;;17.17;9.88;;;;;;;5.55;57.01;99229.94;147510;1146;104562;-73
2021/04/07 11:31:32;;;;;;;17.30;8.95;;;;;;;5.46;57.03;99235.09;147686;1147;104619;-72
2021/04/07 11:34:39;;;;;;;11.23;7.43;;;;;;;5.35;56.93;99231.80;147623;1146;104534;-70
2021/04/07 11:37:47;;;;;;;11.68;6.25;;;;;;;5.47;56.88;99222.73;147674;1147;104479;-70
2021/04/07 11:41:38;;;;;;;10.40;6.03;;;;;;;5.71;56.54;99225.65;147600;1148;104462;-71
2021/04/07 11:44:27;;;;;;;11.47;7.47;;;;;;;5.81;56.32;99232.71;147569;1147;104550;-70
2021/04/07 11:47:30;;;;;;;16.07;8.70;;;;;;;5.99;56.41;99232.80;147720;1147;104483;-70
2021/04/07 11:50:33;;;;;;;11.97;7.20;;;;;;;6.06;56.14;99236.50;147579;1147;104550;-70
2021/04/07 11:53:37;;;;;;;11.90;8.20;;;;;;;5.79;55.85;99253.20;147695;1146;104892;-70
2021/04/07 11:56:42;;;;;;;11.20;7.67;;;;;;;5.43;57.42;99240.70;147519;1148;104512;-70
2021/04/07 11:59:46;;;;;;;11.18;7.05;;;;;;;5.31;57.17;99253.27;147577;1147;104553;-72
2021/04/07 12:02:49;;;;;;;10.03;6.37;;;;;;;5.33;57.45;99246.98;147648;1147;104512;-74
2021/04/07 12:05:52;;;;;;;13.98;6.40;;;;;;;5.26;57.17;99270.55;147427;1147;104506;-70
2021/04/07 12:08:55;;;;;;;6.85;4.20;;;;;;;5.29;57.71;99257.88;147599;1147;104556;-72
2021/04/07 12:11:58;;;;;;;6.65;4.05;;;;;;;5.42;57.72;99262.00;147499;1147;104546;-73
2021/04/07 12:15:02;;;;;;;5.67;3.70;;;;;;;5.32;57.49;99267.33;147635;1147;104908;-70
2021/04/07 12:18:05;;;;;;;71.05;34.63;;;;;;;5.36;56.88;99258.12;147498;1147;104553;-73
2021/04/07 12:21:10;;;;;;;223.10;164.40;;;;;;;5.58;57.11;99261.37;147608;1147;104541;-70
2021/04/07 12:24:13;;;;;;;34.20;19.02;;;;;;;5.70;56.49;99260.23;147687;1147;104527;-69
2021/04/07 12:27:16;;;;;;;19.98;11.10;;;;;;;5.44;56.43;99286.50;147669;1147;104546;-74
2021/04/07 12:30:22;;;;;;;13.62;7.60;;;;;;;4.63;59.30;99293.00;147618;1147;104608;-72
2021/04/07 12:33:27;;;;;;;8.33;4.10;;;;;;;3.47;66.33;99314.65;147676;1147;104547;-71
2021/04/07 12:36:32;;;;;;;11.97;7.73;;;;;;;2.83;64.84;99321.73;147680;1147;104546;-71
2021/04/07 12:39:37;;;;;;;57.30;26.10;;;;;;;2.44;65.09;99310.00;147572;1147;104699;-72
2021/04/07 12:42:40;;;;;;;176.40;92.90;;;;;;;2.34;65.86;99294.95;147712;1147;104545;-73
2021/04/07 12:45:44;;;;;;;150.10;78.30;;;;;;;2.45;65.62;99301.98;147601;1147;104575;-70
2021/04/07 12:48:48;;;;;;;45.90;20.00;;;;;;;2.58;66.80;99306.24;147591;1146;104541;-70
2021/04/07 12:51:52;;;;;;;107.63;58.78;;;;;;;2.66;66.26;99315.20;147273;1147;104562;-70
2021/04/07 12:54:55;;;;;;;69.42;36.68;;;;;;;2.84;66.74;99312.84;147500;1147;104451;-71
2021/04/07 12:58:00;;;;;;;198.43;102.30;;;;;;;2.77;67.03;99316.11;147556;1146;104550;-71
2021/04/07 13:01:03;;;;;;;61.30;33.13;;;;;;;2.90;66.32;99317.59;147244;1147;104630;-72
2021/04/07 13:04:07;;;;;;;38.73;19.60;;;;;;;3.07;66.73;99324.11;147559;1147;104519;-72
2021/04/07 13:07:10;;;;;;;23.20;10.25;;;;;;;3.25;66.83;99336.71;147568;1146;104467;-73
2021/04/07 13:10:17;;;;;;;80.75;35.35;;;;;;;3.34;65.95;99328.03;147577;1147;104497;-70
2021/04/07 13:13:21;;;;;;;37.23;21.70;;;;;;;3.27;66.14;99324.23;147445;1147;104540;-70
2021/04/07 13:16:24;;;;;;;25.57;16.47;;;;;;;3.46;68.07;99324.34;147320;1147;104614;-70
2021/04/07 13:19:29;;;;;;;117.93;68.25;;;;;;;3.70;67.53;99317.95;147559;1146;104543;-72
2021/04/07 13:22:33;;;;;;;52.30;28.60;;;;;;;3.83;67.04;99315.93;147541;1146;104578;-72
2021/04/07 13:25:36;;;;;;;45.60;26.50;;;;;;;3.94;66.54;99314.98;147434;1146;104446;-72
2021/04/07 13:28:39;;;;;;;77.03;43.40;;;;;;;4.05;67.10;99312.23;147577;1146;104549;-72
2021/04/07 13:31:42;;;;;;;61.68;38.33;;;;;;;4.21;67.26;99311.72;147539;1148;104647;-70
2021/04/07 13:34:52;;;;;;;41.92;22.10;;;;;;;4.41;67.40;99314.42;147569;1146;104566;-72
2021/04/07 13:38:00;;;;;;;95.25;57.35;;;;;;;4.65;66.86;99311.37;147620;1147;104561;-70
2021/04/07 13:41:23;;;;;;;74.15;47.50;;;;;;;4.79;66.81;99312.76;147504;1148;104457;-70
2021/04/07 13:44:27;;;;;;;28.35;16.73;;;;;;;4.95;67.10;99323.63;147509;1147;104444;-69
2021/04/07 13:47:30;;;;;;;16.20;10.37;;;;;;;4.91;66.41;99333.63;147515;1147;104628;-73
2021/04/07 13:50:33;;;;;;;28.65;17.37;;;;;;;4.86;65.85;99330.56;147577;1148;104536;-72
2021/04/07 13:53:37;;;;;;;28.98;19.05;;;;;;;4.75;65.89;99316.66;147543;1147;104469;-70
2021/04/07 13:56:45;;;;;;;12.65;7.90;;;;;;;4.85;65.59;99310.41;147648;1147;104541;-70
2021/04/07 13:59:48;;;;;;;12.23;7.65;;;;;;;5.00;65.99;99305.50;147250;1147;104476;-71